Time;durP1;ratioP1;P1;durP2;ratioP2;P2;SDS_P1;SDS_P2;PMS_P1;PMS_P2;Temp;Humidity;BMP_temperature;BMP_pressure;BME280_temperature;BME280_humidity;BME280_pressure;Samples;Min_cycle;Max_cycle;Signal;HPM_P1;HPM_P2
2022/07/22 00:01:44;;;;;;;;;;;;;;;21.29;65.00;99119.55;1657100;85;20122;-75
2022/07/22 00:04:10;;;;;;;;;;;;;;;21.24;65.16;99113.23;1651833;85;21262;-76
2022/07/22 00:06:38;;;;;;;;;;;;;;;21.20;65.37;99114.26;1667518;85;20158;-75
2022/07/22 00:09:04;;;;;;;;;;;;;;;21.21;65.51;99129.95;1647830;85;20461;-76
2022/07/22 00:11:31;;;;;;;;;;;;;;;21.21;65.65;99124.55;1647716;85;20167;-76
2022/07/22 00:13:57;;;;;;;;;;;;;;;21.19;65.73;99126.69;1663647;85;20154;-76
2022/07/22 00:16:23;;;;;;;;;;;;;;;21.20;65.75;99124.25;1647775;85;21153;-76
2022/07/22 00:18:49;;;;;;;;;;;;;;;21.21;65.78;99130.78;1664682;84;20091;-76
2022/07/22 00:21:16;;;;;;;;;;;;;;;21.20;65.85;99125.61;1648297;85;20201;-75
2022/07/22 00:23:42;;;;;;;;;;;;;;;21.19;65.92;99130.75;1660663;85;20078;-75
2022/07/22 00:26:08;;;;;;;;;;;;;;;21.19;65.94;99129.39;1661330;85;20217;-75
2022/07/22 00:28:34;;;;;;;;;;;;;;;21.17;65.95;99130.98;1657283;85;20713;-75
2022/07/22 00:31:02;;;;;;;;;;;;;;;21.15;66.06;99130.94;1657143;85;20078;-75
2022/07/22 00:33:28;;;;;;;;;;;;;;;21.10;66.16;99124.92;1657270;85;20105;-75
2022/07/22 00:35:55;;;;;;;;;;;;;;;21.10;66.42;99129.51;1658345;85;20078;-76
2022/07/22 00:38:21;;;;;;;;;;;;;;;21.06;66.63;99131.91;1657206;85;20170;-76
2022/07/22 00:40:47;;;;;;;;;;;;;;;21.06;66.70;99135.10;1657155;85;21964;-76
2022/07/22 00:43:13;;;;;;;;;;;;;;;21.03;66.79;99135.59;1657921;85;20472;-75
2022/07/22 00:45:40;;;;;;;;;;;;;;;20.99;67.00;99134.45;1663855;85;20098;-75
2022/07/22 00:48:06;;;;;;;;;;;;;;;20.97;67.09;99136.56;1660784;85;20422;-75
2022/07/22 00:50:32;;;;;;;;;;;;;;;20.94;67.20;99137.88;1659056;85;20103;-76
2022/07/22 00:52:59;;;;;;;;;;;;;;;20.93;67.33;99137.05;1657424;85;21294;-75
2022/07/22 00:55:25;;;;;;;;;;;;;;;20.92;67.37;99132.72;1657914;85;20114;-75
2022/07/22 00:57:52;;;;;;;;;;;;;;;20.91;67.48;99131.07;1658354;85;20098;-75
2022/07/22 01:00:19;;;;;;;;;;;;;;;20.89;67.54;99136.44;1663365;85;20190;-76
2022/07/22 01:02:46;;;;;;;;;;;;;;;20.88;67.51;99132.91;1658543;85;20436;-75
2022/07/22 01:05:12;;;;;;;;;;;;;;;20.82;67.68;99140.67;1657343;85;21797;-75
2022/07/22 01:07:39;;;;;;;;;;;;;;;20.78;67.78;99139.50;1658045;85;20126;-75
2022/07/22 01:10:07;;;;;;;;;;;;;;;20.75;67.94;99137.84;1657574;85;20122;-75
2022/07/22 01:12:34;;;;;;;;;;;;;;;20.70;68.14;99136.40;1657306;85;20726;-74
2022/07/22 01:15:01;;;;;;;;;;;;;;;20.65;68.34;99133.61;1657404;85;20153;-75
2022/07/22 01:17:27;;;;;;;;;;;;;;;20.63;68.55;99130.30;1657638;85;21172;-76
2022/07/22 01:19:53;;;;;;;;;;;;;;;20.62;68.72;99124.63;1656651;85;20169;-75
2022/07/22 01:22:20;;;;;;;;;;;;;;;20.60;68.78;99125.37;1656323;85;20162;-76
2022/07/22 01:24:46;;;;;;;;;;;;;;;20.58;68.87;99131.04;1621891;86;20175;-75
2022/07/22 01:27:12;;;;;;;;;;;;;;;20.56;68.93;99130.47;1652946;85;20142;-76
2022/07/22 01:29:40;;;;;;;;;;;;;;;20.53;69.02;99130.13;1657793;85;21925;-75
2022/07/22 01:32:06;;;;;;;;;;;;;;;20.49;69.08;99129.78;1655564;85;20452;-75
2022/07/22 01:34:33;;;;;;;;;;;;;;;20.47;69.15;99130.56;1655722;85;20435;-75
2022/07/22 01:37:00;;;;;;;;;;;;;;;20.45;69.15;99130.52;1660519;85;20481;-75
2022/07/22 01:39:26;;;;;;;;;;;;;;;20.41;69.20;99124.80;1655658;85;20110;-75
2022/07/22 01:41:52;;;;;;;;;;;;;;;20.39;69.24;99130.16;1655657;85;21256;-75
2022/07/22 01:44:18;;;;;;;;;;;;;;;20.36;69.37;99127.41;1655625;85;20138;-75
2022/07/22 01:46:45;;;;;;;;;;;;;;;20.31;69.50;99126.75;1658132;85;20099;-76
2022/07/22 01:49:11;;;;;;;;;;;;;;;20.28;69.58;99130.48;1656744;85;20234;-75
2022/07/22 01:51:38;;;;;;;;;;;;;;;20.23;69.66;99124.95;1655104;85;20134;-75
2022/07/22 01:54:06;;;;;;;;;;;;;;;20.21;69.72;99128.41;1657894;85;22107;-75
2022/07/22 01:56:32;;;;;;;;;;;;;;;20.16;69.90;99131.01;1671718;85;20435;-75
2022/07/22 01:58:59;;;;;;;;;;;;;;;20.15;70.09;99134.79;1659437;85;20102;-75
2022/07/22 02:01:27;;;;;;;;;;;;;;;20.11;70.29;99139.01;1649118;85;20110;-75
2022/07/22 02:03:54;;;;;;;;;;;;;;;20.09;70.42;99138.44;1655716;85;20102;-75
2022/07/22 02:06:20;;;;;;;;;;;;;;;20.07;70.59;99136.52;1632887;85;21159;-75
2022/07/22 02:08:48;;;;;;;;;;;;;;;20.07;70.74;99140.56;1655770;85;20163;-75
2022/07/22 02:11:17;;;;;;;;;;;;;;;20.07;70.80;99139.22;1655211;85;20126;-75
2022/07/22 02:13:52;;;;;;;;;;;;;;;20.06;70.78;99134.34;1657598;85;20130;-75
2022/07/22 02:16:18;;;;;;;;;;;;;;;20.04;70.84;99138.34;1656408;85;20145;-74
2022/07/22 02:18:46;;;;;;;;;;;;;;;20.03;70.92;99135.33;1632838;85;20944;-75
2022/07/22 02:21:13;;;;;;;;;;;;;;;20.00;71.02;99142.56;1663423;85;20433;-75
2022/07/22 02:23:40;;;;;;;;;;;;;;;19.98;71.15;99141.45;1663127;85;20116;-76
2022/07/22 02:26:07;;;;;;;;;;;;;;;19.97;71.23;99145.77;1663030;85;20212;-74
2022/07/22 02:28:34;;;;;;;;;;;;;;;19.98;71.27;99146.86;1663615;85;20154;-75
2022/07/22 02:31:00;;;;;;;;;;;;;;;19.97;71.25;99144.41;1680656;85;21286;-75
2022/07/22 02:33:29;;;;;;;;;;;;;;;19.96;71.29;99144.11;1671413;85;20523;-75
2022/07/22 02:35:56;;;;;;;;;;;;;;;19.95;71.29;99146.50;1656004;85;20091;-74
2022/07/22 02:38:22;;;;;;;;;;;;;;;19.92;71.29;99145.10;1662922;85;20168;-75
2022/07/22 02:40:48;;;;;;;;;;;;;;;19.92;71.35;99148.36;1669523;85;20166;-75
2022/07/22 02:43:15;;;;;;;;;;;;;;;19.90;71.41;99148.58;1665979;85;21252;-74
2022/07/22 02:45:41;;;;;;;;;;;;;;;19.90;71.58;99153.98;1666308;85;20115;-74
2022/07/22 02:48:07;;;;;;;;;;;;;;;19.93;71.62;99151.33;1662868;85;20441;-75
2022/07/22 02:50:34;;;;;;;;;;;;;;;19.94;71.56;99155.16;1653886;85;20153;-76
2022/07/22 02:53:01;;;;;;;;;;;;;;;19.95;71.56;99158.66;1663180;85;20119;-74
2022/07/22 02:55:29;;;;;;;;;;;;;;;19.95;71.77;99162.70;1665099;85;21714;-75
2022/07/22 02:57:56;;;;;;;;;;;;;;;19.98;71.83;99160.36;1661920;85;20099;-76
2022/07/22 03:00:22;;;;;;;;;;;;;;;20.03;71.77;99165.86;1663461;85;20079;-75
2022/07/22 03:02:49;;;;;;;;;;;;;;;20.07;71.53;99161.64;1662976;85;20155;-76
2022/07/22 03:05:15;;;;;;;;;;;;;;;20.08;71.28;99163.27;1661546;85;20428;-75
2022/07/22 03:07:43;;;;;;;;;;;;;;;20.12;70.99;99167.14;1656880;85;21178;-75
2022/07/22 03:10:11;;;;;;;;;;;;;;;20.13;70.31;99162.02;1663043;85;20079;-74
2022/07/22 03:12:37;;;;;;;;;;;;;;;20.10;69.77;99164.39;1663123;85;20187;-76
2022/07/22 03:15:04;;;;;;;;;;;;;;;20.06;69.85;99158.64;1663063;85;20172;-75
2022/07/22 03:17:36;;;;;;;;;;;;;;;20.08;69.69;99158.39;1675472;85;20092;-75
2022/07/22 03:20:06;;;;;;;;;;;;;;;20.12;69.58;99160.92;1663455;85;21601;-76
2022/07/22 03:22:33;;;;;;;;;;;;;;;20.21;69.46;99158.11;1673518;85;20124;-75
2022/07/22 03:24:59;;;;;;;;;;;;;;;20.36;69.14;99157.64;1663163;85;20171;-75
2022/07/22 03:27:25;;;;;;;;;;;;;;;20.51;68.85;99153.88;1664929;85;20103;-75
2022/07/22 03:29:51;;;;;;;;;;;;;;;20.67;68.43;99157.97;1663183;85;20075;-75
2022/07/22 03:32:18;;;;;;;;;;;;;;;20.87;68.08;99152.92;1664513;85;21666;-75
2022/07/22 03:34:47;;;;;;;;;;;;;;;21.14;67.56;99154.48;1663032;85;20453;-75
2022/07/22 03:37:14;;;;;;;;;;;;;;;21.45;66.80;99153.89;1664630;85;20198;-75
2022/07/22 03:39:42;;;;;;;;;;;;;;;21.75;65.99;99153.48;1663152;85;20218;-76
2022/07/22 03:42:10;;;;;;;;;;;;;;;22.08;65.14;99147.19;1663050;85;20104;-76
2022/07/22 03:44:38;;;;;;;;;;;;;;;22.42;64.20;99146.50;1663028;85;21317;-76
2022/07/22 03:47:04;;;;;;;;;;;;;;;22.76;63.17;99145.23;1671075;85;20100;-75
2022/07/22 03:49:32;;;;;;;;;;;;;;;23.11;62.00;99150.98;1663222;85;20087;-75
2022/07/22 03:51:58;;;;;;;;;;;;;;;23.46;61.04;99145.57;1662989;85;20545;-75
2022/07/22 03:54:25;;;;;;;;;;;;;;;23.82;59.98;99141.98;1663054;85;20151;-75
2022/07/22 03:56:52;;;;;;;;;;;;;;;24.21;58.82;99140.55;1661864;85;21835;-76
2022/07/22 03:59:19;;;;;;;;;;;;;;;24.61;57.78;99144.47;1662855;85;20484;-75
2022/07/22 04:01:45;;;;;;;;;;;;;;;25.00;56.65;99145.06;1665657;85;20417;-75
2022/07/22 04:04:12;;;;;;;;;;;;;;;25.40;55.60;99139.33;1662945;85;20108;-74
2022/07/22 04:06:40;;;;;;;;;;;;;;;25.80;54.20;99142.02;1662717;85;20466;-74
2022/07/22 04:09:09;;;;;;;;;;;;;;;26.22;53.18;99137.53;1662839;85;21182;-76
2022/07/22 04:11:36;;;;;;;;;;;;;;;26.66;52.22;99131.55;1662940;85;20076;-77
2022/07/22 04:14:02;;;;;;;;;;;;;;;27.18;51.18;99135.53;1637786;86;20123;-76
2022/07/22 04:16:29;;;;;;;;;;;;;;;27.70;49.85;99134.78;1667296;85;20173;-75
2022/07/22 04:18:57;;;;;;;;;;;;;;;28.18;48.77;99133.13;1666775;85;20132;-76
2022/07/22 04:21:43;;;;;;;;;;;;;;;28.64;47.36;99129.80;1647825;85;21037;-75
2022/07/22 04:24:11;;;;;;;;;;;;;;;29.08;45.80;99127.46;1664594;85;20120;-75
2022/07/22 04:26:37;;;;;;;;;;;;;;;29.49;44.81;99130.91;1644933;85;20124;-75
2022/07/22 04:29:05;;;;;;;;;;;;;;;29.96;43.96;99119.58;1664832;84;20268;-76
2022/07/22 04:31:32;;;;;;;;;;;;;;;30.47;42.83;99119.34;1668477;84;20462;-74
2022/07/22 04:34:06;;;;;;;;;;;;;;;30.92;41.70;99118.88;1663256;84;21166;-75
2022/07/22 04:36:32;;;;;;;;;;;;;;;31.40;40.79;99116.25;1666628;84;20102;-75
2022/07/22 04:38:58;;;;;;;;;;;;;;;31.87;39.39;99115.53;1665647;84;20180;-74
2022/07/22 04:41:25;;;;;;;;;;;;;;;32.34;38.37;99112.53;1673592;84;20078;-76
2022/07/22 04:43:52;;;;;;;;;;;;;;;32.75;37.42;99114.28;1670832;84;20094;-75
2022/07/22 04:46:20;;;;;;;;;;;;;;;33.17;36.60;99111.84;1664050;85;21170;-76
2022/07/22 04:48:46;;;;;;;;;;;;;;;33.60;35.48;99112.58;1664794;84;20093;-76
2022/07/22 04:51:13;;;;;;;;;;;;;;;33.95;34.50;99104.38;1681937;84;20091;-76
2022/07/22 04:53:40;;;;;;;;;;;;;;;34.25;33.73;99108.55;1670530;84;20121;-75
2022/07/22 04:56:07;;;;;;;;;;;;;;;34.56;33.26;99111.77;1664584;84;20119;-75
2022/07/22 04:58:33;;;;;;;;;;;;;;;34.99;32.65;99114.95;1647997;85;21083;-75
2022/07/22 05:00:59;;;;;;;;;;;;;;;35.44;32.12;99113.62;1667051;84;20123;-77
2022/07/22 05:03:26;;;;;;;;;;;;;;;35.95;31.18;99113.02;1647940;85;20178;-71
2022/07/22 05:05:53;;;;;;;;;;;;;;;36.28;30.34;99117.08;1672547;84;20087;-70
2022/07/22 05:08:22;;;;;;;;;;;;;;;36.35;29.77;99111.75;1669767;84;20175;-69
2022/07/22 05:10:49;;;;;;;;;;;;;;;36.47;29.76;99117.86;1664710;85;21161;-71
2022/07/22 05:13:16;;;;;;;;;;;;;;;36.82;29.24;99113.95;1646568;85;20090;-73
2022/07/22 05:15:43;;;;;;;;;;;;;;;37.10;28.66;99115.59;1659049;85;20100;-74
2022/07/22 05:18:10;;;;;;;;;;;;;;;37.35;28.35;99117.68;1634316;86;20117;-73
2022/07/22 05:20:38;;;;;;;;;;;;;;;37.68;27.86;99118.75;1675137;84;20165;-78
2022/07/22 05:23:05;;;;;;;;;;;;;;;37.87;27.71;99114.72;1646929;86;21119;-77
2022/07/22 05:25:32;;;;;;;;;;;;;;;38.03;27.16;99117.48;1672864;84;20116;-76
2022/07/22 05:27:59;;;;;;;;;;;;;;;38.10;27.26;99121.23;1656080;85;20157;-74
2022/07/22 05:30:33;;;;;;;;;;;;;;;38.52;26.75;99117.84;1665586;84;20159;-72
2022/07/22 05:33:01;;;;;;;;;;;;;;;38.88;26.14;99121.05;1664388;85;20226;-73
2022/07/22 05:35:33;;;;;;;;;;;;;;;39.18;25.89;99117.11;1664505;84;21608;-73
2022/07/22 05:37:59;;;;;;;;;;;;;;;39.44;25.28;99113.62;1671021;84;20205;-67
2022/07/22 05:40:27;;;;;;;;;;;;;;;39.35;25.33;99118.60;1665419;84;20188;-71
2022/07/22 05:42:53;;;;;;;;;;;;;;;39.34;25.30;99119.80;1664338;85;20470;-71
2022/07/22 05:45:19;;;;;;;;;;;;;;;39.64;25.06;99119.37;1670327;84;20157;-73
2022/07/22 05:47:46;;;;;;;;;;;;;;;40.05;24.57;99122.66;1667345;84;21095;-71
2022/07/22 05:50:13;;;;;;;;;;;;;;;40.38;24.28;99118.39;1664883;84;20103;-75
2022/07/22 05:52:42;;;;;;;;;;;;;;;40.86;23.79;99119.47;1665724;84;20226;-73
2022/07/22 05:55:09;;;;;;;;;;;;;;;41.27;23.23;99116.36;1665622;84;20471;-71
2022/07/22 05:57:36;;;;;;;;;;;;;;;41.39;22.78;99120.11;1649182;85;20203;-71
2022/07/22 06:00:04;;;;;;;;;;;;;;;41.46;22.74;99112.60;1660074;85;21285;-70
2022/07/22 06:02:32;;;;;;;;;;;;;;;41.77;22.37;99114.14;1646055;85;20171;-71
2022/07/22 06:05:00;;;;;;;;;;;;;;;42.16;22.16;99120.83;1669177;84;20485;-71
2022/07/22 06:07:27;;;;;;;;;;;;;;;42.68;21.38;99118.20;1672627;84;20211;-71
2022/07/22 06:09:55;;;;;;;;;;;;;;;43.04;21.07;99123.36;1666533;84;20137;-71
2022/07/22 06:12:22;;;;;;;;;;;;;;;43.37;20.78;99124.47;1675923;84;21273;-71
2022/07/22 06:14:48;;;;;;;;;;;;;;;43.66;20.54;99125.89;1672588;84;20084;-72
2022/07/22 06:17:14;;;;;;;;;;;;;;;43.88;19.97;99119.14;1685214;84;20095;-73
2022/07/22 06:19:41;;;;;;;;;;;;;;;43.65;20.13;99121.52;1647289;85;20082;-71
2022/07/22 06:22:10;;;;;;;;;;;;;;;43.83;19.90;99126.55;1664263;85;20127;-74
2022/07/22 06:24:37;;;;;;;;;;;;;;;44.02;19.78;99123.32;1635999;86;21778;-72
2022/07/22 06:27:04;;;;;;;;;;;;;;;44.38;19.45;99122.09;1663030;84;20154;-69
2022/07/22 06:29:33;;;;;;;;;;;;;;;44.72;19.16;99123.82;1662985;85;20100;-72
2022/07/22 06:32:03;;;;;;;;;;;;;;;44.90;18.35;99121.77;1690209;85;20482;-69
2022/07/22 06:34:33;;;;;;;;;;;;;;;44.61;18.69;99125.88;1673429;85;20211;-72
2022/07/22 06:37:04;;;;;;;;;;;;;;;44.89;18.68;99130.01;1691131;85;21179;-73
2022/07/22 06:39:32;;;;;;;;;;;;;;;45.38;18.12;99123.34;1672515;85;20468;-74
2022/07/22 06:42:15;;;;;;;;;;;;;;;45.53;17.60;99125.44;1656596;85;20445;-74
2022/07/22 06:44:46;;;;;;;;;;;;;;;45.59;17.61;99125.20;1650567;85;20148;-73
2022/07/22 06:47:15;;;;;;;;;;;;;;;45.95;16.98;99118.91;1675455;84;20144;-72
2022/07/22 06:49:42;;;;;;;;;;;;;;;45.91;17.10;99128.00;1638382;86;21238;-75
2022/07/22 06:52:08;;;;;;;;;;;;;;;46.02;17.18;99121.51;1662118;85;20125;-73
2022/07/22 06:54:36;;;;;;;;;;;;;;;46.43;16.73;99132.16;1683125;85;20114;-71
2022/07/22 06:57:03;;;;;;;;;;;;;;;46.71;16.60;99128.22;1642895;85;20217;-74
2022/07/22 06:59:31;;;;;;;;;;;;;;;47.09;16.17;99127.77;1663080;85;20112;-74
2022/07/22 07:01:58;;;;;;;;;;;;;;;47.33;15.94;99133.47;1681440;84;21133;-74
2022/07/22 07:04:24;;;;;;;;;;;;;;;47.45;15.65;99135.72;1667899;85;20097;-75
2022/07/22 07:06:51;;;;;;;;;;;;;;;47.28;15.52;99135.35;1684909;84;20154;-72
2022/07/22 07:09:19;;;;;;;;;;;;;;;47.19;15.64;99135.91;1660417;85;20139;-75
2022/07/22 07:11:47;;;;;;;;;;;;;;;47.28;15.71;99132.54;1673159;85;20093;-74
2022/07/22 07:14:16;;;;;;;;;;;;;;;47.51;15.62;99134.83;1655255;85;21179;-73
2022/07/22 07:16:42;;;;;;;;;;;;;;;47.57;15.26;99133.14;1650041;85;20091;-73
2022/07/22 07:19:09;;;;;;;;;;;;;;;47.63;15.54;99134.26;1683621;84;20558;-73
2022/07/22 07:21:37;;;;;;;;;;;;;;;47.89;15.46;99134.06;1666828;85;20124;-73
2022/07/22 07:24:04;;;;;;;;;;;;;;;48.17;14.85;99131.38;1666110;85;20192;-76
2022/07/22 07:26:30;;;;;;;;;;;;;;;48.30;14.25;99123.27;1657496;85;21163;-75
2022/07/22 07:28:57;;;;;;;;;;;;;;;48.20;14.22;99133.34;1657280;85;20190;-76
2022/07/22 07:31:25;;;;;;;;;;;;;;;48.36;14.17;99136.88;1656196;85;20082;-75
2022/07/22 07:33:51;;;;;;;;;;;;;;;48.63;13.84;99136.18;1653462;85;20134;-76
2022/07/22 07:36:18;;;;;;;;;;;;;;;48.69;13.80;99139.45;1657429;85;20090;-74
2022/07/22 07:38:48;;;;;;;;;;;;;;;48.72;13.64;99139.20;1662832;85;21260;-75
2022/07/22 07:41:16;;;;;;;;;;;;;;;48.42;13.78;99133.74;1664203;85;20078;-74
2022/07/22 07:43:42;;;;;;;;;;;;;;;48.33;13.75;99139.94;1665288;85;20105;-73
2022/07/22 07:46:08;;;;;;;;;;;;;;;48.55;13.75;99135.50;1665953;85;20136;-73
2022/07/22 07:48:35;;;;;;;;;;;;;;;48.86;13.71;99138.28;1657785;85;20098;-73
2022/07/22 07:51:02;;;;;;;;;;;;;;;49.09;13.09;99143.09;1634600;86;21548;-74
2022/07/22 07:53:28;;;;;;;;;;;;;;;48.83;12.95;99142.00;1657409;85;20110;-74
2022/07/22 07:55:54;;;;;;;;;;;;;;;48.67;12.82;99148.98;1657472;85;20170;-76
2022/07/22 07:58:22;;;;;;;;;;;;;;;48.54;12.95;99145.82;1657384;85;20175;-75
2022/07/22 08:00:48;;;;;;;;;;;;;;;48.54;13.02;99149.44;1657711;85;20170;-75
2022/07/22 08:03:15;;;;;;;;;;;;;;;48.46;13.32;99152.80;1672924;85;21214;-76
2022/07/22 08:05:42;;;;;;;;;;;;;;;48.44;13.00;99151.02;1657434;85;20126;-75
2022/07/22 08:08:10;;;;;;;;;;;;;;;48.10;13.32;99153.43;1656245;85;20423;-74
2022/07/22 08:10:37;;;;;;;;;;;;;;;48.11;13.45;99155.61;1672801;85;20434;-73
2022/07/22 08:13:05;;;;;;;;;;;;;;;48.41;13.60;99144.83;1657897;85;20158;-73
2022/07/22 08:15:50;;;;;;;;;;;;;;;48.46;13.29;99142.92;1657506;85;21165;-73
2022/07/22 08:18:24;;;;;;;;;;;;;;;47.97;13.57;99152.45;1660452;85;20094;-74
2022/07/22 08:20:51;;;;;;;;;;;;;;;47.83;13.88;99154.08;1634508;85;20226;-74
2022/07/22 08:23:19;;;;;;;;;;;;;;;47.94;13.88;99156.13;1634406;85;20133;-75
2022/07/22 08:25:46;;;;;;;;;;;;;;;47.94;14.16;99153.30;1657556;85;20439;-75
2022/07/22 08:28:12;;;;;;;;;;;;;;;48.04;13.65;99158.56;1657482;85;21195;-74
2022/07/22 08:30:40;;;;;;;;;;;;;;;47.91;13.84;99149.92;1657397;85;20511;-73
2022/07/22 08:33:07;;;;;;;;;;;;;;;48.14;14.01;99150.53;1657447;85;20420;-73
2022/07/22 08:35:33;;;;;;;;;;;;;;;48.29;13.47;99154.73;1657452;85;20254;-75
2022/07/22 08:37:59;;;;;;;;;;;;;;;48.27;13.56;99159.98;1657464;85;20141;-73
2022/07/22 08:40:26;;;;;;;;;;;;;;;48.28;13.48;99151.72;1665605;85;21156;-74
2022/07/22 08:42:52;;;;;;;;;;;;;;;48.52;13.60;99151.07;1657487;85;20133;-73
2022/07/22 08:45:20;;;;;;;;;;;;;;;48.87;13.08;99154.64;1648737;85;20133;-73
2022/07/22 08:47:49;;;;;;;;;;;;;;;48.95;13.05;99150.44;1657709;85;20118;-73
2022/07/22 08:50:26;;;;;;;;;;;;;;;48.82;13.02;99153.70;1650902;85;20126;-73
2022/07/22 08:52:54;;;;;;;;;;;;;;;48.68;13.09;99153.38;1657089;85;22359;-72
2022/07/22 08:55:21;;;;;;;;;;;;;;;48.81;13.12;99150.08;1657545;85;20463;-73
2022/07/22 08:57:50;;;;;;;;;;;;;;;48.98;12.73;99145.95;1634863;85;20089;-75
2022/07/22 09:00:18;;;;;;;;;;;;;;;48.72;12.72;99143.44;1658865;85;20408;-74
2022/07/22 09:02:45;;;;;;;;;;;;;;;48.52;13.10;99152.48;1661780;85;20274;-74
2022/07/22 09:05:14;;;;;;;;;;;;;;;47.83;13.46;99153.28;1657905;85;21134;-74
2022/07/22 09:07:43;;;;;;;;;;;;;;;47.44;13.69;99158.06;1657536;85;20183;-75
2022/07/22 09:10:15;;;;;;;;;;;;;;;47.33;13.74;99154.59;1657235;85;20460;-74
2022/07/22 09:13:03;;;;;;;;;;;;;;;47.45;13.68;99152.63;1657476;85;20090;-74
2022/07/22 09:15:49;;;;;;;;;;;;;;;47.57;13.51;99154.27;1657319;85;20101;-75
2022/07/22 09:18:54;;;;;;;;;;;;;;;47.31;13.66;99153.63;1653214;85;21179;-74
2022/07/22 09:21:22;;;;;;;;;;;;;;;47.15;14.11;99153.44;1656759;85;20094;-73
2022/07/22 09:23:50;;;;;;;;;;;;;;;47.14;13.83;99151.23;1633531;86;20115;-74
2022/07/22 09:26:33;;;;;;;;;;;;;;;47.26;13.61;99147.66;1657556;85;20094;-74
2022/07/22 09:29:19;;;;;;;;;;;;;;;46.64;13.66;99150.22;1637830;86;35866;-74
2022/07/22 09:31:50;;;;;;;;;;;;;;;45.00;14.79;99151.01;1594418;86;21191;-73
2022/07/22 09:34:28;;;;;;;;;;;;;;;43.67;15.72;99158.31;1641125;86;20080;-73
2022/07/22 09:36:55;;;;;;;;;;;;;;;42.31;16.73;99153.29;1613604;87;20121;-75
2022/07/22 09:39:26;;;;;;;;;;;;;;;41.01;18.13;99153.34;1652584;85;20150;-73
2022/07/22 09:42:03;;;;;;;;;;;;;;;40.19;19.08;99154.70;1619622;87;20137;-73
2022/07/22 09:44:30;;;;;;;;;;;;;;;39.42;19.84;99151.53;1641223;86;21829;-73
2022/07/22 09:46:58;;;;;;;;;;;;;;;38.74;20.97;99160.23;1649624;86;20122;-73
2022/07/22 09:49:44;;;;;;;;;;;;;;;38.27;21.83;99158.35;1636498;86;20108;-72
2022/07/22 09:52:24;;;;;;;;;;;;;;;37.83;22.36;99158.80;1595787;85;20310;-74
2022/07/22 09:55:02;;;;;;;;;;;;;;;37.27;23.17;99156.08;1652420;85;20119;-73
2022/07/22 09:57:28;;;;;;;;;;;;;;;36.92;23.82;99164.77;1652597;85;21098;-73
2022/07/22 09:59:55;;;;;;;;;;;;;;;36.64;24.15;99159.73;1652367;85;20175;-74
2022/07/22 10:02:23;;;;;;;;;;;;;;;36.29;24.50;99167.16;1651481;85;20118;-71
2022/07/22 10:04:49;;;;;;;;;;;;;;;36.00;25.08;99167.36;1659142;85;20166;-72
2022/07/22 10:07:16;;;;;;;;;;;;;;;35.91;25.28;99163.88;1652599;85;20127;-72
2022/07/22 10:09:45;;;;;;;;;;;;;;;35.88;25.28;99161.80;1652547;85;20472;-73
2022/07/22 10:12:11;;;;;;;;;;;;;;;35.83;25.52;99163.41;1652488;85;20436;-73
2022/07/22 10:14:40;;;;;;;;;;;;;;;35.77;25.50;99162.03;1652476;85;20142;-73
2022/07/22 10:17:08;;;;;;;;;;;;;;;35.66;25.60;99159.47;1655313;85;20448;-75
2022/07/22 10:19:35;;;;;;;;;;;;;;;35.63;25.92;99158.77;1652430;85;20102;-73
2022/07/22 10:22:01;;;;;;;;;;;;;;;35.56;25.82;99155.77;1613747;87;21274;-75
2022/07/22 10:24:28;;;;;;;;;;;;;;;35.39;25.95;99160.05;1652501;85;20094;-73
2022/07/22 10:26:57;;;;;;;;;;;;;;;35.25;26.28;99165.30;1652542;85;20150;-72
2022/07/22 10:29:29;;;;;;;;;;;;;;;35.09;26.57;99162.96;1652472;85;20469;-72
2022/07/22 10:32:21;;;;;;;;;;;;;;;34.90;26.95;99160.41;1652498;85;20526;-74
2022/07/22 10:35:09;;;;;;;;;;;;;;;34.59;26.99;99166.33;1652499;85;21670;-74
2022/07/22 10:37:40;;;;;;;;;;;;;;;34.33;27.39;99163.71;1652462;85;20464;-73
2022/07/22 10:40:20;;;;;;;;;;;;;;;34.26;27.76;99159.86;1652684;85;20106;-74
2022/07/22 10:43:06;;;;;;;;;;;;;;;34.15;28.05;99160.21;1643668;85;20424;-72
2022/07/22 10:45:34;;;;;;;;;;;;;;;34.05;27.87;99161.94;1652636;85;20447;-73
2022/07/22 10:48:07;;;;;;;;;;;;;;;33.91;28.22;99164.13;1658533;85;21662;-73
2022/07/22 10:50:37;;;;;;;;;;;;;;;33.82;28.51;99161.96;1652462;85;20106;-75
2022/07/22 10:53:11;;;;;;;;;;;;;;;33.80;28.94;99161.48;1652556;85;20171;-73
2022/07/22 10:55:39;;;;;;;;;;;;;;;33.80;28.92;99157.35;1652474;85;20626;-75
2022/07/22 10:58:35;;;;;;;;;;;;;;;33.74;28.96;99160.05;1652609;85;20452;-72
2022/07/22 11:01:03;;;;;;;;;;;;;;;33.68;29.16;99147.59;1652784;85;21082;-72
2022/07/22 11:03:30;;;;;;;;;;;;;;;33.63;29.18;99146.39;1662528;85;20161;-72
2022/07/22 11:05:56;;;;;;;;;;;;;;;33.52;29.46;99153.37;1655773;85;20172;-71
2022/07/22 11:08:24;;;;;;;;;;;;;;;33.35;29.55;99152.83;1644547;85;20221;-72
2022/07/22 11:10:52;;;;;;;;;;;;;;;33.20;29.57;99145.64;1652433;85;20119;-74
2022/07/22 11:13:35;;;;;;;;;;;;;;;33.07;29.72;99150.76;1652425;85;21262;-73
2022/07/22 11:16:22;;;;;;;;;;;;;;;33.02;29.69;99150.34;1652451;85;20106;-71
2022/07/22 11:18:53;;;;;;;;;;;;;;;32.96;29.86;99151.06;1652437;85;20143;-73
2022/07/22 11:21:21;;;;;;;;;;;;;;;32.96;29.47;99139.23;1650950;85;20147;-76
2022/07/22 11:23:49;;;;;;;;;;;;;;;32.93;29.57;99144.82;1650745;85;20135;-73
2022/07/22 11:26:18;;;;;;;;;;;;;;;32.85;29.94;99147.01;1650676;85;20429;-73
2022/07/22 11:28:44;;;;;;;;;;;;;;;32.78;30.03;99138.43;1650545;85;20193;-77
2022/07/22 11:31:16;;;;;;;;;;;;;;;32.68;30.41;99137.94;1650691;85;20178;-75
2022/07/22 11:33:46;;;;;;;;;;;;;;;32.57;30.71;99136.62;1645044;85;20090;-73
2022/07/22 11:36:13;;;;;;;;;;;;;;;32.61;30.84;99134.30;1637819;85;20150;-73
2022/07/22 11:38:48;;;;;;;;;;;;;;;32.64;30.61;99143.86;1650411;85;21530;-73
2022/07/22 11:41:16;;;;;;;;;;;;;;;32.59;29.49;99145.39;1676895;85;20128;-73
2022/07/22 11:43:48;;;;;;;;;;;;;;;32.50;29.48;99147.28;1666738;85;20094;-73
2022/07/22 11:46:15;;;;;;;;;;;;;;;32.47;29.64;99146.55;1651490;85;20577;-74
2022/07/22 11:48:42;;;;;;;;;;;;;;;32.49;30.06;99142.34;1655036;85;20094;-75
2022/07/22 11:51:10;;;;;;;;;;;;;;;32.52;30.05;99142.26;1650782;85;21190;-74
2022/07/22 11:53:37;;;;;;;;;;;;;;;32.50;30.21;99146.72;1650571;85;20412;-74
2022/07/22 11:56:05;;;;;;;;;;;;;;;32.38;30.12;99146.55;1650531;85;20130;-74
2022/07/22 11:58:44;;;;;;;;;;;;;;;32.25;30.19;99141.99;1650558;85;20448;-75
2022/07/22 12:01:13;;;;;;;;;;;;;;;32.17;30.59;99143.56;1649901;85;20171;-73
2022/07/22 12:03:47;;;;;;;;;;;;;;;32.18;31.00;99143.82;1650728;85;21162;-73
2022/07/22 12:06:14;;;;;;;;;;;;;;;32.21;30.74;99142.37;1650599;85;20126;-72
2022/07/22 12:08:46;;;;;;;;;;;;;;;32.23;30.81;99138.72;1650577;85;20474;-72
2022/07/22 12:11:15;;;;;;;;;;;;;;;32.23;30.68;99135.97;1650557;85;20102;-73
2022/07/22 12:13:44;;;;;;;;;;;;;;;32.11;30.82;99139.92;1650648;85;20127;-72
2022/07/22 12:16:27;;;;;;;;;;;;;;;32.07;30.96;99141.11;1650904;85;21756;-73
2022/07/22 12:19:06;;;;;;;;;;;;;;;32.05;30.92;99138.44;1650592;85;20078;-72
2022/07/22 12:21:36;;;;;;;;;;;;;;;32.04;31.06;99132.70;1650115;85;20094;-74
2022/07/22 12:24:04;;;;;;;;;;;;;;;32.01;30.85;99134.71;1647117;85;20480;-75
2022/07/22 12:26:45;;;;;;;;;;;;;;;32.00;30.88;99134.45;1650915;85;20142;-72
2022/07/22 12:29:23;;;;;;;;;;;;;;;31.98;31.12;99132.00;1641467;85;21273;-74
2022/07/22 12:31:58;;;;;;;;;;;;;;;31.93;30.72;99129.40;1650540;85;20154;-71
2022/07/22 12:34:39;;;;;;;;;;;;;;;31.88;30.99;99125.98;1650564;85;20118;-73
2022/07/22 12:37:16;;;;;;;;;;;;;;;31.81;31.33;99127.02;1650572;85;20127;-71
2022/07/22 12:40:05;;;;;;;;;;;;;;;31.68;31.52;99124.03;1650514;85;20106;-73
2022/07/22 12:42:40;;;;;;;;;;;;;;;31.57;31.97;99126.02;1650734;85;21569;-74
2022/07/22 12:45:14;;;;;;;;;;;;;;;31.53;32.43;99124.45;1650781;85;20440;-73
2022/07/22 12:47:57;;;;;;;;;;;;;;;31.52;32.13;99117.31;1654194;85;20133;-72
2022/07/22 12:50:28;;;;;;;;;;;;;;;31.43;32.01;99121.95;1650729;85;20127;-73
2022/07/22 12:52:57;;;;;;;;;;;;;;;31.39;32.20;99122.89;1650643;85;20435;-73
2022/07/22 12:55:24;;;;;;;;;;;;;;;31.36;32.03;99113.91;1649686;85;21184;-73
2022/07/22 12:57:50;;;;;;;;;;;;;;;31.33;32.18;99115.91;1650653;85;20179;-73